Time;durP1;ratioP1;P1;durP2;ratioP2;P2;SDS_P1;SDS_P2;PMS_P1;PMS_P2;Temp;Humidity;BMP_temperature;BMP_pressure;BME280_temperature;BME280_humidity;BME280_pressure;Samples;Min_cycle;Max_cycle;Signal;HPM_P1;HPM_P2
2022/03/24 00:01:16;;;;;;;;;;;;;;;1.81;49.16;99283.88;5084377;28;20019;-67
2022/03/24 00:03:42;;;;;;;;;;;;;;;1.80;48.81;99270.00;5095520;28;20038;-67
2022/03/24 00:06:08;;;;;;;;;;;;;;;1.80;49.36;99272.63;5095152;28;19953;-66
2022/03/24 00:08:33;;;;;;;;;;;;;;;1.80;48.96;99259.56;5094348;28;19927;-66
2022/03/24 00:11:00;;;;;;;;;;;;;;;1.84;48.76;99267.03;5094583;28;19939;-66
2022/03/24 00:13:25;;;;;;;;;;;;;;;1.86;48.44;99265.06;5094119;28;19985;-65
2022/03/24 00:15:51;;;;;;;;;;;;;;;1.94;48.19;99259.69;5095025;28;19927;-66
2022/03/24 00:18:16;;;;;;;;;;;;;;;2.02;48.23;99257.78;5083965;28;20289;-67
2022/03/24 00:20:42;;;;;;;;;;;;;;;2.09;47.86;99255.25;5080248;28;19967;-66
2022/03/24 00:23:08;;;;;;;;;;;;;;;2.14;47.91;99255.47;5079237;28;19935;-66
2022/03/24 00:25:33;;;;;;;;;;;;;;;2.16;48.19;99255.31;5079220;28;20082;-66
2022/03/24 00:27:59;;;;;;;;;;;;;;;2.16;48.14;99252.69;5060098;28;20366;-65
2022/03/24 00:30:24;;;;;;;;;;;;;;;2.15;48.18;99244.03;5093927;28;20059;-65
2022/03/24 00:32:50;;;;;;;;;;;;;;;2.15;47.84;99251.09;5093749;28;19986;-66
2022/03/24 00:35:17;;;;;;;;;;;;;;;2.13;48.37;99237.38;5094465;28;19924;-68
2022/03/24 00:37:43;;;;;;;;;;;;;;;2.07;48.42;99240.75;5060029;28;19928;-68
2022/03/24 00:40:10;;;;;;;;;;;;;;;2.01;48.20;99232.63;5042983;28;20022;-69
2022/03/24 00:42:37;;;;;;;;;;;;;;;2.00;48.35;99236.25;5043231;28;20081;-67
2022/03/24 00:45:06;;;;;;;;;;;;;;;1.95;48.54;99229.97;5093280;28;19947;-66
2022/03/24 00:47:34;;;;;;;;;;;;;;;1.96;48.36;99232.38;5076772;28;19928;-68
2022/03/24 00:50:01;;;;;;;;;;;;;;;1.95;48.37;99224.72;5092155;28;20353;-69
2022/03/24 00:52:28;;;;;;;;;;;;;;;1.96;48.40;99232.38;5056161;28;19970;-68
2022/03/24 00:54:54;;;;;;;;;;;;;;;1.94;48.19;99221.31;5072860;28;19932;-68
2022/03/24 00:57:20;;;;;;;;;;;;;;;1.91;48.55;99224.31;5072306;28;19928;-67
2022/03/24 00:59:46;;;;;;;;;;;;;;;1.90;48.47;99230.50;5074223;28;20336;-66
2022/03/24 01:02:11;;;;;;;;;;;;;;;1.81;48.16;99210.72;5073967;28;20432;-68
2022/03/24 01:04:37;;;;;;;;;;;;;;;1.89;48.64;99228.91;5076516;28;19928;-68
2022/03/24 01:07:03;;;;;;;;;;;;;;;1.87;48.15;99214.38;5059193;28;19978;-67
2022/03/24 01:09:29;;;;;;;;;;;;;;;1.87;47.94;99217.00;5083398;28;20027;-66
2022/03/24 01:11:56;;;;;;;;;;;;;;;1.86;48.16;99213.59;5088491;28;20030;-66
2022/03/24 01:14:23;;;;;;;;;;;;;;;1.86;48.33;99208.34;5092817;28;19928;-65
2022/03/24 01:16:51;;;;;;;;;;;;;;;1.87;48.25;99217.00;5093864;28;19977;-64
2022/03/24 01:19:16;;;;;;;;;;;;;;;1.81;48.13;99213.31;5074939;28;19936;-63
2022/03/24 01:21:42;;;;;;;;;;;;;;;1.76;47.97;99202.59;5086196;28;19920;-63
2022/03/24 01:24:08;;;;;;;;;;;;;;;1.75;48.40;99203.59;5072525;28;19935;-62
2022/03/24 01:26:35;;;;;;;;;;;;;;;1.70;48.75;99205.97;5078076;28;19931;-61
2022/03/24 01:29:01;;;;;;;;;;;;;;;1.67;48.41;99199.28;5080448;28;19962;-62
2022/03/24 01:31:26;;;;;;;;;;;;;;;1.69;47.94;99206.97;5093737;28;20016;-61
2022/03/24 01:33:53;;;;;;;;;;;;;;;1.67;48.14;99204.53;5092739;28;19927;-61
2022/03/24 01:36:20;;;;;;;;;;;;;;;1.63;49.14;99200.66;5075664;28;19931;-62
2022/03/24 01:38:46;;;;;;;;;;;;;;;1.60;49.67;99201.03;5092318;28;19928;-62
2022/03/24 01:41:11;;;;;;;;;;;;;;;1.53;49.77;99195.75;5075057;28;20381;-63
2022/03/24 01:43:37;;;;;;;;;;;;;;;1.50;49.93;99193.50;5093643;28;19928;-64
2022/03/24 01:46:03;;;;;;;;;;;;;;;1.43;49.74;99195.19;5092172;28;19924;-67
2022/03/24 01:48:30;;;;;;;;;;;;;;;1.40;49.65;99189.53;5090656;28;20435;-62
2022/03/24 01:50:56;;;;;;;;;;;;;;;1.34;49.84;99194.50;5080483;28;19928;-63
2022/03/24 01:53:22;;;;;;;;;;;;;;;1.34;49.70;99193.69;5093449;28;20023;-63
2022/03/24 01:55:49;;;;;;;;;;;;;;;1.32;49.67;99190.44;5092866;28;19946;-62
2022/03/24 01:58:15;;;;;;;;;;;;;;;1.28;49.83;99181.38;5080773;28;20071;-63
2022/03/24 02:00:41;;;;;;;;;;;;;;;1.28;49.38;99186.59;5076135;28;20420;-62
2022/03/24 02:03:07;;;;;;;;;;;;;;;1.25;49.88;99186.94;5093256;28;19928;-65
2022/03/24 02:05:34;;;;;;;;;;;;;;;1.23;50.26;99181.09;5092981;28;19931;-65
2022/03/24 02:08:03;;;;;;;;;;;;;;;1.22;49.75;99175.06;5074851;28;19928;-65
2022/03/24 02:10:30;;;;;;;;;;;;;;;1.18;49.59;99173.00;5075336;28;19931;-65
2022/03/24 02:12:56;;;;;;;;;;;;;;;1.14;50.23;99173.34;5080554;28;19979;-65
2022/03/24 02:15:22;;;;;;;;;;;;;;;1.16;50.06;99167.16;5073974;28;20416;-66
2022/03/24 02:17:49;;;;;;;;;;;;;;;1.18;50.05;99162.53;5083419;28;19929;-64
2022/03/24 02:20:15;;;;;;;;;;;;;;;1.18;49.64;99168.59;5072893;28;19935;-66
2022/03/24 02:22:40;;;;;;;;;;;;;;;1.13;49.85;99161.31;5092686;28;19950;-65
2022/03/24 02:25:07;;;;;;;;;;;;;;;1.07;50.71;99156.00;5092532;28;19923;-65
2022/03/24 02:27:33;;;;;;;;;;;;;;;1.06;49.30;99159.59;5092547;28;19931;-66
2022/03/24 02:29:58;;;;;;;;;;;;;;;1.06;50.38;99154.38;5091802;28;19924;-66
2022/03/24 02:32:23;;;;;;;;;;;;;;;1.05;49.52;99158.78;5091370;28;19931;-65
2022/03/24 02:34:51;;;;;;;;;;;;;;;1.09;49.00;99157.44;5092506;28;20376;-65
2022/03/24 02:37:19;;;;;;;;;;;;;;;1.14;49.21;99160.28;5086287;28;19978;-66
2022/03/24 02:39:57;;;;;;;;;;;;;;;1.21;48.49;99149.16;5072085;28;20293;-64
2022/03/24 02:42:27;;;;;;;;;;;;;;;1.30;46.50;99155.88;5091718;28;19924;-65
2022/03/24 02:44:53;;;;;;;;;;;;;;;1.42;46.36;99145.78;5092187;28;19924;-65
2022/03/24 02:47:19;;;;;;;;;;;;;;;1.52;46.04;99151.50;5091028;28;19924;-65
2022/03/24 02:49:46;;;;;;;;;;;;;;;1.55;45.25;99149.31;5090012;28;19934;-64
2022/03/24 02:52:11;;;;;;;;;;;;;;;1.56;46.07;99142.31;5092231;28;19930;-67
2022/03/24 02:54:37;;;;;;;;;;;;;;;1.55;45.73;99145.91;5091005;28;20026;-65
2022/03/24 02:57:03;;;;;;;;;;;;;;;1.51;45.92;99147.28;5089557;28;20352;-66
2022/03/24 02:59:28;;;;;;;;;;;;;;;1.48;45.82;99137.19;5070845;28;19978;-65
2022/03/24 03:01:59;;;;;;;;;;;;;;;1.45;46.15;99143.59;5087345;28;19928;-67
2022/03/24 03:04:25;;;;;;;;;;;;;;;1.43;46.31;99140.34;5074384;28;20301;-68
2022/03/24 03:06:51;;;;;;;;;;;;;;;1.45;46.06;99137.56;5090716;28;19924;-67
2022/03/24 03:09:17;;;;;;;;;;;;;;;1.50;45.82;99137.81;5089701;28;20440;-68
2022/03/24 03:11:45;;;;;;;;;;;;;;;1.52;45.21;99134.03;5089719;28;19931;-69
2022/03/24 03:14:12;;;;;;;;;;;;;;;1.58;45.40;99135.88;5090205;28;19928;-69
2022/03/24 03:16:38;;;;;;;;;;;;;;;1.64;44.94;99133.53;5091507;28;19924;-69
2022/03/24 03:19:04;;;;;;;;;;;;;;;1.65;45.39;99135.16;5034587;28;19928;-67
2022/03/24 03:21:29;;;;;;;;;;;;;;;1.64;45.25;99134.34;5075498;28;19947;-67
2022/03/24 03:23:55;;;;;;;;;;;;;;;1.62;45.20;99135.50;5092148;28;19951;-68
2022/03/24 03:26:22;;;;;;;;;;;;;;;1.56;47.72;99130.06;5091588;28;20027;-67
2022/03/24 03:28:47;;;;;;;;;;;;;;;1.50;48.18;99128.19;5090662;28;20426;-67
2022/03/24 03:31:14;;;;;;;;;;;;;;;1.42;48.71;99130.91;5073142;28;20005;-68
2022/03/24 03:33:39;;;;;;;;;;;;;;;1.35;49.28;99125.63;5078194;28;20290;-67
2022/03/24 03:36:05;;;;;;;;;;;;;;;1.30;49.69;99124.56;5078745;28;19935;-68
2022/03/24 03:38:33;;;;;;;;;;;;;;;1.23;50.49;99121.03;5054627;28;19932;-67
2022/03/24 03:41:02;;;;;;;;;;;;;;;1.16;50.48;99122.78;5077773;28;19969;-68
2022/03/24 03:43:28;;;;;;;;;;;;;;;1.21;50.16;99125.66;5090217;28;19960;-75
2022/03/24 03:45:54;;;;;;;;;;;;;;;1.32;50.59;99120.75;5073371;28;20479;-72
2022/03/24 03:48:20;;;;;;;;;;;;;;;1.41;50.11;99121.44;5070776;28;20086;-71
2022/03/24 03:50:45;;;;;;;;;;;;;;;1.47;50.11;99119.88;5075818;28;20396;-73
2022/03/24 03:53:11;;;;;;;;;;;;;;;1.53;49.96;99121.75;5076216;28;19932;-71
2022/03/24 03:55:37;;;;;;;;;;;;;;;1.54;49.96;99120.78;5074352;28;20030;-70
2022/03/24 03:58:03;;;;;;;;;;;;;;;1.54;49.96;99118.97;5080536;28;20354;-70
2022/03/24 04:03:13;;;;;;;;;;;;;;;1.79;49.82;99118.59;5091607;28;19931;-71
2022/03/24 04:05:38;;;;;;;;;;;;;;;1.93;49.50;99117.72;5091277;28;19923;-70
2022/03/24 04:08:04;;;;;;;;;;;;;;;2.07;48.87;99118.66;5090334;28;19928;-69
2022/03/24 04:10:30;;;;;;;;;;;;;;;2.20;48.31;99118.75;5072103;28;19924;-69
2022/03/24 04:12:57;;;;;;;;;;;;;;;2.28;48.11;99121.22;5083951;28;20461;-67
2022/03/24 04:15:23;;;;;;;;;;;;;;;2.25;48.48;99126.03;5070051;28;19924;-68
2022/03/24 04:17:50;;;;;;;;;;;;;;;2.30;48.47;99121.06;5081879;28;19982;-69
2022/03/24 04:20:20;;;;;;;;;;;;;;;2.36;48.03;99117.69;5069559;28;20034;-69
2022/03/24 04:22:50;;;;;;;;;;;;;;;2.39;47.72;99113.88;5088131;28;19928;-69
2022/03/24 04:25:20;;;;;;;;;;;;;;;2.38;47.13;99107.84;5092874;28;19924;-69
2022/03/24 04:27:46;;;;;;;;;;;;;;;2.42;47.31;99116.91;5092270;28;19928;-68
2022/03/24 04:30:12;;;;;;;;;;;;;;;2.45;47.13;99113.91;5074225;28;19924;-69
2022/03/24 04:32:38;;;;;;;;;;;;;;;2.46;46.83;99109.47;5088643;28;20359;-69
2022/03/24 04:35:04;;;;;;;;;;;;;;;2.45;46.90;99111.28;5094693;28;19931;-66
2022/03/24 04:37:30;;;;;;;;;;;;;;;2.48;46.98;99100.44;5085275;28;20015;-66
2022/03/24 04:39:55;;;;;;;;;;;;;;;2.48;47.10;99108.28;5074282;28;20142;-65
2022/03/24 04:42:21;;;;;;;;;;;;;;;2.39;46.79;99106.81;5083752;28;20030;-64
2022/03/24 04:44:46;;;;;;;;;;;;;;;2.37;47.02;99103.59;5093182;28;19944;-63
2022/03/24 04:47:11;;;;;;;;;;;;;;;2.31;47.62;99103.53;5094165;28;19927;-62
2022/03/24 04:49:37;;;;;;;;;;;;;;;2.19;48.16;99109.28;5093737;28;19928;-63
2022/03/24 04:52:03;;;;;;;;;;;;;;;2.11;48.00;99112.03;5092771;28;20018;-64
2022/03/24 04:54:29;;;;;;;;;;;;;;;2.02;48.66;99100.09;5094778;28;20313;-63
2022/03/24 04:56:56;;;;;;;;;;;;;;;1.97;49.04;99100.69;5092727;28;19964;-63
2022/03/24 04:59:22;;;;;;;;;;;;;;;1.94;49.36;99098.47;5074567;28;19928;-62
2022/03/24 05:01:48;;;;;;;;;;;;;;;1.87;50.01;99102.81;5074365;28;19925;-60
2022/03/24 05:04:15;;;;;;;;;;;;;;;1.89;49.78;99097.41;5084431;28;20310;-59
2022/03/24 05:06:40;;;;;;;;;;;;;;;1.84;49.93;99094.53;5072753;28;19978;-58
2022/03/24 05:09:06;;;;;;;;;;;;;;;1.85;50.17;99102.16;5090773;28;19928;-58
2022/03/24 05:11:31;;;;;;;;;;;;;;;1.83;50.64;99106.78;5093583;28;20019;-60
2022/03/24 05:13:57;;;;;;;;;;;;;;;1.92;50.78;99110.09;5091990;28;19972;-63
2022/03/24 05:16:22;;;;;;;;;;;;;;;1.94;50.82;99093.22;5094099;28;20304;-61
2022/03/24 05:18:48;;;;;;;;;;;;;;;2.11;50.55;99106.00;5092938;28;19928;-60
2022/03/24 05:21:13;;;;;;;;;;;;;;;2.22;50.47;99103.69;5092302;28;20018;-59
2022/03/24 05:23:39;;;;;;;;;;;;;;;2.30;50.55;99100.13;5093525;28;20289;-60
2022/03/24 05:26:04;;;;;;;;;;;;;;;2.38;50.58;99099.16;5058368;28;20027;-61
2022/03/24 05:28:30;;;;;;;;;;;;;;;2.48;49.96;99099.63;5085835;28;19932;-60
2022/03/24 05:30:55;;;;;;;;;;;;;;;2.59;48.71;99100.91;5072817;28;19993;-60
2022/03/24 05:33:21;;;;;;;;;;;;;;;2.68;48.88;99108.41;5083439;28;19928;-59
2022/03/24 05:35:46;;;;;;;;;;;;;;;2.78;48.79;99102.03;5092446;28;19935;-61
2022/03/24 05:38:12;;;;;;;;;;;;;;;2.87;48.58;99106.09;5089313;28;19935;-61
2022/03/24 05:40:40;;;;;;;;;;;;;;;2.95;48.04;99103.31;5093510;28;19947;-61
2022/03/24 05:43:06;;;;;;;;;;;;;;;3.03;48.29;99111.00;5092519;28;19932;-61
2022/03/24 05:45:31;;;;;;;;;;;;;;;3.14;47.62;99107.81;5086711;28;19924;-60
2022/03/24 05:47:57;;;;;;;;;;;;;;;3.25;47.12;99105.66;5088472;28;19935;-62
2022/03/24 05:50:43;;;;;;;;;;;;;;;3.34;47.19;99110.50;5073760;28;19931;-61
2022/03/24 05:53:15;;;;;;;;;;;;;;;3.47;46.85;99107.13;5069338;28;20373;-61
2022/03/24 05:55:41;;;;;;;;;;;;;;;3.57;46.78;99111.97;5084561;28;19969;-63
2022/03/24 05:58:07;;;;;;;;;;;;;;;3.63;46.50;99108.56;5059151;28;20348;-58
2022/03/24 06:00:34;;;;;;;;;;;;;;;3.74;46.22;99110.59;5086747;28;20481;-60
2022/03/24 06:03:00;;;;;;;;;;;;;;;3.85;45.33;99106.56;5070205;28;19958;-59
2022/03/24 06:05:26;;;;;;;;;;;;;;;3.97;45.28;99118.09;5086062;28;20450;-59
2022/03/24 06:07:51;;;;;;;;;;;;;;;4.06;45.17;99114.25;5076058;28;19962;-59
2022/03/24 06:10:17;;;;;;;;;;;;;;;4.19;44.97;99117.88;5062383;28;19925;-59
2022/03/24 06:12:42;;;;;;;;;;;;;;;4.35;44.25;99119.28;5037769;28;19972;-59
2022/03/24 06:15:08;;;;;;;;;;;;;;;4.45;43.96;99125.75;5033308;28;19935;-59
2022/03/24 06:17:34;;;;;;;;;;;;;;;4.56;43.56;99121.69;5058170;28;19935;-60
2022/03/24 06:20:01;;;;;;;;;;;;;;;4.67;43.33;99115.00;5068174;28;19935;-60
2022/03/24 06:22:28;;;;;;;;;;;;;;;4.82;42.02;99126.06;5066695;28;19967;-59
2022/03/24 06:24:54;;;;;;;;;;;;;;;4.97;42.61;99125.81;5070811;28;19964;-60
2022/03/24 06:27:20;;;;;;;;;;;;;;;5.10;42.00;99124.97;5073113;28;20733;-60
2022/03/24 06:29:45;;;;;;;;;;;;;;;5.22;42.29;99121.47;5068039;28;19935;-61
2022/03/24 06:32:10;;;;;;;;;;;;;;;5.32;41.24;99114.97;5069619;28;19965;-60
2022/03/24 06:34:36;;;;;;;;;;;;;;;5.42;40.56;99121.38;5072576;28;20325;-64
2022/03/24 06:37:02;;;;;;;;;;;;;;;5.57;39.57;99129.00;5070538;28;20393;-62
2022/03/24 06:39:28;;;;;;;;;;;;;;;5.65;40.32;99120.88;5072792;28;19989;-64
2022/03/24 06:41:54;;;;;;;;;;;;;;;5.73;40.84;99130.31;5069752;28;20421;-62
2022/03/24 06:44:20;;;;;;;;;;;;;;;5.81;39.02;99126.63;5088100;28;19982;-64
2022/03/24 06:46:46;;;;;;;;;;;;;;;5.91;38.35;99130.41;5079294;28;20448;-65
2022/03/24 06:49:11;;;;;;;;;;;;;;;6.02;39.31;99131.56;5088939;28;19928;-61
2022/03/24 06:51:37;;;;;;;;;;;;;;;6.16;38.18;99128.84;5070727;28;19939;-63
2022/03/24 06:54:03;;;;;;;;;;;;;;;6.19;36.57;99129.22;5084648;28;20026;-61
2022/03/24 06:56:28;;;;;;;;;;;;;;;6.24;36.22;99124.13;5088353;28;19924;-63
2022/03/24 06:58:54;;;;;;;;;;;;;;;6.33;36.01;99132.56;5089904;28;20000;-60
2022/03/24 07:01:19;;;;;;;;;;;;;;;6.38;36.17;99132.69;5085846;28;19932;-61
2022/03/24 07:03:45;;;;;;;;;;;;;;;6.47;35.83;99133.22;5090051;28;19932;-60
2022/03/24 07:06:11;;;;;;;;;;;;;;;6.55;35.88;99143.47;5088826;28;19935;-64
2022/03/24 07:08:37;;;;;;;;;;;;;;;6.61;35.10;99139.97;5090310;28;20023;-61
2022/03/24 07:11:03;;;;;;;;;;;;;;;6.68;35.69;99143.38;5090000;28;20011;-61
2022/03/24 07:13:29;;;;;;;;;;;;;;;6.75;35.23;99133.56;5087747;28;20344;-61
2022/03/24 07:15:55;;;;;;;;;;;;;;;6.82;35.06;99133.47;5067599;28;19929;-62
2022/03/24 07:18:20;;;;;;;;;;;;;;;6.88;34.44;99134.44;5078490;28;19939;-62
2022/03/24 07:20:46;;;;;;;;;;;;;;;6.96;34.36;99134.94;5087932;28;19931;-62
2022/03/24 07:23:11;;;;;;;;;;;;;;;6.97;34.43;99133.13;5087009;28;19989;-63
2022/03/24 07:25:37;;;;;;;;;;;;;;;7.04;34.56;99137.31;5088896;28;19946;-61
2022/03/24 07:28:04;;;;;;;;;;;;;;;7.12;34.09;99135.38;5089010;28;20025;-62
2022/03/24 07:30:30;;;;;;;;;;;;;;;7.17;33.45;99136.34;5086807;28;19924;-62
2022/03/24 07:32:56;;;;;;;;;;;;;;;7.25;33.88;99140.50;5077516;28;19993;-62
2022/03/24 07:35:21;;;;;;;;;;;;;;;7.31;33.81;99134.34;5089712;28;20292;-63
2022/03/24 07:37:48;;;;;;;;;;;;;;;7.39;33.83;99138.53;5089985;28;19977;-63
2022/03/24 07:40:18;;;;;;;;;;;;;;;7.44;33.94;99142.09;5076310;28;19924;-66
2022/03/24 07:42:47;;;;;;;;;;;;;;;7.51;33.37;99142.00;5072402;28;19932;-64
2022/03/24 07:45:12;;;;;;;;;;;;;;;7.61;33.21;99139.63;5067612;28;20423;-62
2022/03/24 07:47:58;;;;;;;;;;;;;;;7.67;33.39;99137.94;5057253;28;19979;-64
2022/03/24 07:50:24;;;;;;;;;;;;;;;7.74;33.20;99142.09;5089065;28;19938;-62
2022/03/24 07:52:49;;;;;;;;;;;;;;;7.80;32.57;99134.31;5081498;28;19928;-62
2022/03/24 07:55:15;;;;;;;;;;;;;;;7.87;32.52;99133.19;5070797;28;19928;-62
2022/03/24 07:57:40;;;;;;;;;;;;;;;7.93;31.35;99134.13;5077863;28;19935;-60
2022/03/24 08:00:06;;;;;;;;;;;;;;;7.96;31.44;99134.47;5083819;28;19924;-61
2022/03/24 08:02:34;;;;;;;;;;;;;;;8.00;31.51;99134.84;5072910;28;19931;-62
2022/03/24 08:05:00;;;;;;;;;;;;;;;7.97;30.73;99125.53;5052882;28;20349;-61
2022/03/24 08:07:25;;;;;;;;;;;;;;;8.02;30.72;99127.47;5071392;28;19950;-61
2022/03/24 08:09:50;;;;;;;;;;;;;;;8.06;29.96;99127.81;5072203;28;19969;-62
2022/03/24 08:12:16;;;;;;;;;;;;;;;8.10;29.33;99129.00;5074281;28;19925;-62
2022/03/24 08:14:41;;;;;;;;;;;;;;;8.12;29.35;99129.56;5073914;28;19931;-62
2022/03/24 08:17:07;;;;;;;;;;;;;;;8.16;29.66;99128.88;5072695;28;19932;-61
2022/03/24 08:19:34;;;;;;;;;;;;;;;8.18;29.29;99131.31;5054987;28;20027;-62
2022/03/24 08:21:59;;;;;;;;;;;;;;;8.20;28.78;99130.00;5071690;28;19924;-62
2022/03/24 08:24:25;;;;;;;;;;;;;;;8.24;29.61;99126.94;5093342;28;19932;-62
2022/03/24 08:26:50;;;;;;;;;;;;;;;8.32;29.43;99131.88;5092770;28;20391;-64
2022/03/24 08:29:16;;;;;;;;;;;;;;;8.36;29.66;99127.75;5091952;28;19928;-62
2022/03/24 08:31:41;;;;;;;;;;;;;;;8.38;30.28;99125.66;5071288;28;20049;-64
2022/03/24 08:34:07;;;;;;;;;;;;;;;8.42;29.80;99126.88;5089590;28;19932;-63
2022/03/24 08:36:33;;;;;;;;;;;;;;;8.47;29.41;99128.81;5089834;28;19929;-63
2022/03/24 08:39:00;;;;;;;;;;;;;;;8.51;29.39;99122.84;5071402;28;20438;-63
2022/03/24 08:41:25;;;;;;;;;;;;;;;8.55;29.64;99126.63;5092933;28;19932;-64
2022/03/24 08:43:51;;;;;;;;;;;;;;;8.56;29.30;99124.78;5092801;28;19927;-63
2022/03/24 08:46:17;;;;;;;;;;;;;;;8.60;29.08;99121.47;5075099;28;19949;-63
2022/03/24 08:48:42;;;;;;;;;;;;;;;8.63;28.78;99125.47;5093952;28;19928;-63
2022/03/24 08:51:08;;;;;;;;;;;;;;;8.69;28.82;99121.13;5086371;28;19924;-63
2022/03/24 08:53:33;;;;;;;;;;;;;;;8.68;29.18;99122.97;5092170;28;19928;-64
2022/03/24 08:55:59;;;;;;;;;;;;;;;8.71;28.67;99125.13;5091325;28;20316;-63
2022/03/24 08:58:24;;;;;;;;;;;;;;;8.77;28.18;99123.41;5089736;28;20331;-65
2022/03/24 09:00:50;;;;;;;;;;;;;;;8.77;28.30;99126.06;5093202;28;19924;-64
2022/03/24 09:03:15;;;;;;;;;;;;;;;8.79;28.20;99126.59;5092963;28;19993;-65
2022/03/24 09:05:41;;;;;;;;;;;;;;;8.82;28.12;99118.22;5089899;28;20353;-63
2022/03/24 09:08:06;;;;;;;;;;;;;;;8.88;28.77;99125.22;5093160;28;19947;-66
2022/03/24 09:10:32;;;;;;;;;;;;;;;8.90;28.88;99122.34;5091248;28;19924;-65
2022/03/24 09:12:58;;;;;;;;;;;;;;;8.95;28.95;99125.91;5091297;28;19977;-66
2022/03/24 09:15:23;;;;;;;;;;;;;;;9.00;28.17;99119.91;5042779;28;19932;-67
2022/03/24 09:17:50;;;;;;;;;;;;;;;9.07;27.96;99123.25;5050448;28;19929;-64
2022/03/24 09:20:18;;;;;;;;;;;;;;;9.01;28.24;99114.41;5088916;28;19954;-63
2022/03/24 09:22:44;;;;;;;;;;;;;;;9.05;27.98;99120.00;5090203;28;19939;-62
2022/03/24 09:25:10;;;;;;;;;;;;;;;9.07;27.44;99123.25;5088801;28;19931;-63
2022/03/24 09:27:37;;;;;;;;;;;;;;;9.09;27.09;99113.25;5091411;28;19938;-64
2022/03/24 09:30:04;;;;;;;;;;;;;;;9.13;27.11;99116.22;5090763;28;19923;-63
2022/03/24 09:32:29;;;;;;;;;;;;;;;9.13;27.15;99119.66;5091195;28;19924;-63
2022/03/24 09:34:55;;;;;;;;;;;;;;;9.09;27.62;99119.31;5071930;28;19950;-64
2022/03/24 09:37:22;;;;;;;;;;;;;;;9.13;26.82;99119.66;5061610;28;19924;-65
2022/03/24 09:39:49;;;;;;;;;;;;;;;9.15;27.21;99117.59;5067119;28;19924;-63
2022/03/24 09:42:17;;;;;;;;;;;;;;;9.15;26.75;99114.94;5042687;28;19925;-64
2022/03/24 09:44:43;;;;;;;;;;;;;;;9.15;26.78;99125.53;5079398;28;19924;-63
2022/03/24 09:47:11;;;;;;;;;;;;;;;9.18;26.85;99118.97;5068462;28;19925;-66
2022/03/24 09:49:38;;;;;;;;;;;;;;;9.17;26.68;99118.13;5064395;28;19928;-64
2022/03/24 09:52:03;;;;;;;;;;;;;;;9.16;27.28;99116.53;5082344;28;19975;-64
2022/03/24 09:54:29;;;;;;;;;;;;;;;9.20;27.10;99115.03;5074390;28;19968;-64
2022/03/24 09:56:54;;;;;;;;;;;;;;;9.26;26.93;99115.94;5071259;28;20300;-64
2022/03/24 09:59:20;;;;;;;;;;;;;;;9.30;26.51;99119.72;5080607;28;20410;-63
2022/03/24 10:01:45;;;;;;;;;;;;;;;9.28;26.29;99109.38;5088911;28;20126;-63
2022/03/24 10:04:13;;;;;;;;;;;;;;;9.32;26.64;99114.97;5087423;28;19934;-64
2022/03/24 10:06:39;;;;;;;;;;;;;;;9.38;26.59;99113.25;5073089;28;19924;-62
2022/03/24 10:09:05;;;;;;;;;;;;;;;9.41;26.93;99113.59;5077912;28;19928;-66
2022/03/24 10:11:31;;;;;;;;;;;;;;;9.46;26.13;99115.50;5087868;28;19924;-64
2022/03/24 10:13:58;;;;;;;;;;;;;;;9.44;26.43;99113.13;5087821;28;19931;-65
2022/03/24 10:16:34;;;;;;;;;;;;;;;9.47;26.28;99119.75;5060477;28;19991;-65
2022/03/24 10:19:08;;;;;;;;;;;;;;;9.48;26.48;99108.94;5069493;28;19977;-64
2022/03/24 10:21:38;;;;;;;;;;;;;;;9.49;25.80;99109.75;5085470;28;19929;-63
2022/03/24 10:24:08;;;;;;;;;;;;;;;9.46;26.45;99116.31;5057934;28;20018;-62
2022/03/24 10:26:50;;;;;;;;;;;;;;;9.43;26.57;99116.78;5056646;28;20472;-63
2022/03/24 10:29:17;;;;;;;;;;;;;;;9.49;26.65;99115.03;5051274;28;19940;-64
2022/03/24 10:31:43;;;;;;;;;;;;;;;9.49;26.40;99113.19;5042186;28;20374;-63
2022/03/24 10:34:12;;;;;;;;;;;;;;;9.57;25.95;99116.50;5080091;28;20418;-64
2022/03/24 10:36:39;;;;;;;;;;;;;;;9.56;25.87;99110.44;5068219;28;19924;-63
2022/03/24 10:39:05;;;;;;;;;;;;;;;9.51;26.05;99115.63;5082015;28;19943;-63
2022/03/24 10:41:32;;;;;;;;;;;;;;;9.57;26.42;99117.31;5068053;28;19925;-64
2022/03/24 10:43:59;;;;;;;;;;;;;;;9.57;26.67;99119.16;5066983;28;19928;-65
2022/03/24 10:46:24;;;;;;;;;;;;;;;9.57;25.89;99109.38;5068286;28;19947;-64
2022/03/24 10:48:50;;;;;;;;;;;;;;;9.60;26.26;99116.84;5068504;28;20566;-64
2022/03/24 10:51:22;;;;;;;;;;;;;;;9.61;26.47;99113.13;5068520;28;19929;-64
2022/03/24 10:53:48;;;;;;;;;;;;;;;9.60;26.40;99110.75;5073569;28;19934;-66
2022/03/24 10:56:16;;;;;;;;;;;;;;;9.58;26.17;99107.53;5088310;28;19928;-64
2022/03/24 10:58:47;;;;;;;;;;;;;;;9.63;26.62;99108.41;5081662;28;19935;-65
2022/03/24 11:01:15;;;;;;;;;;;;;;;9.68;26.17;99110.38;5087121;28;19931;-64
2022/03/24 11:03:41;;;;;;;;;;;;;;;9.69;26.16;99115.41;5072032;28;19935;-65
2022/03/24 11:06:08;;;;;;;;;;;;;;;9.69;25.37;99119.91;5084847;28;19924;-63
2022/03/24 11:08:34;;;;;;;;;;;;;;;9.65;25.70;99116.94;5071326;28;20420;-64
2022/03/24 11:10:59;;;;;;;;;;;;;;;9.68;26.25;99113.81;5082646;28;19924;-66
2022/03/24 11:13:51;;;;;;;;;;;;;;;9.69;26.66;99107.47;5050086;28;20027;-66
2022/03/24 11:16:17;;;;;;;;;;;;;;;9.67;26.28;99114.84;5046773;28;20023;-63
2022/03/24 11:18:43;;;;;;;;;;;;;;;9.69;26.14;99107.47;5068748;28;19929;-68
2022/03/24 11:21:12;;;;;;;;;;;;;;;9.66;25.96;99109.78;5084486;28;19924;-69
2022/03/24 11:23:40;;;;;;;;;;;;;;;9.66;26.33;99118.53;5072155;28;19928;-66
2022/03/24 11:26:10;;;;;;;;;;;;;;;9.64;25.82;99117.97;5083151;28;19928;-65
2022/03/24 11:28:36;;;;;;;;;;;;;;;9.66;25.50;99112.44;5054113;28;20368;-65
2022/03/24 11:31:03;;;;;;;;;;;;;;;9.58;26.11;99116.25;5086389;28;19924;-66
2022/03/24 11:33:29;;;;;;;;;;;;;;;9.61;25.71;99113.13;5086449;28;19931;-66
2022/03/24 11:35:54;;;;;;;;;;;;;;;9.60;26.16;99111.53;5071390;28;20015;-65
2022/03/24 11:38:20;;;;;;;;;;;;;;;9.66;26.25;99115.88;5035388;28;19928;-66
2022/03/24 11:40:46;;;;;;;;;;;;;;;9.67;25.81;99117.47;5085988;28;20039;-63
2022/03/24 11:43:14;;;;;;;;;;;;;;;9.68;26.00;99120.97;5081773;28;19928;-64
2022/03/24 11:45:54;;;;;;;;;;;;;;;9.69;25.95;99114.59;5087164;28;19931;-62
2022/03/24 11:48:39;;;;;;;;;;;;;;;9.66;25.42;99110.59;5074223;28;19928;-68
2022/03/24 11:51:14;;;;;;;;;;;;;;;9.66;25.30;99118.53;5081915;28;19970;-65
2022/03/24 11:53:39;;;;;;;;;;;;;;;9.66;25.26;99115.88;5068560;28;19932;-65
2022/03/24 11:56:05;;;;;;;;;;;;;;;9.70;25.57;99109.06;5085486;28;19947;-65
2022/03/24 11:58:31;;;;;;;;;;;;;;;9.72;24.48;99114.94;5068682;28;20001;-66
2022/03/24 12:00:57;;;;;;;;;;;;;;;9.66;25.27;99113.25;5071738;28;19982;-64
2022/03/24 12:03:42;;;;;;;;;;;;;;;9.70;24.48;99108.25;5077312;28;19928;-64
2022/03/24 12:06:08;;;;;;;;;;;;;;;9.69;24.75;99109.31;5073143;28;19950;-64
2022/03/24 12:09:02;;;;;;;;;;;;;;;9.70;24.84;99106.41;5073277;28;20367;-68
2022/03/24 12:11:31;;;;;;;;;;;;;;;9.69;25.74;99104.03;5090029;28;19924;-66
2022/03/24 12:13:59;;;;;;;;;;;;;;;9.67;24.97;99108.75;5090487;28;19932;-63
2022/03/24 12:16:25;;;;;;;;;;;;;;;9.66;25.54;99105.31;5080331;28;19942;-62
2022/03/24 12:18:52;;;;;;;;;;;;;;;9.69;25.14;99107.47;5069510;28;20034;-61
2022/03/24 12:21:19;;;;;;;;;;;;;;;9.67;24.31;99103.44;5080843;28;19975;-66
2022/03/24 12:24:03;;;;;;;;;;;;;;;9.62;24.68;99096.25;5077982;28;19927;-65
2022/03/24 12:26:30;;;;;;;;;;;;;;;9.64;24.72;99109.22;5070721;28;19949;-63
2022/03/24 12:29:22;;;;;;;;;;;;;;;9.60;25.04;99103.59;5072440;28;19929;-64
2022/03/24 12:31:57;;;;;;;;;;;;;;;9.58;24.44;99110.97;5070252;28;20364;-65
2022/03/24 12:34:34;;;;;;;;;;;;;;;9.58;23.69;99104.88;5073160;28;19928;-65
2022/03/24 12:37:00;;;;;;;;;;;;;;;9.55;25.00;99109.59;5090476;28;19924;-65
2022/03/24 12:39:32;;;;;;;;;;;;;;;9.54;24.45;99099.25;5075371;28;19932;-67
2022/03/24 12:42:11;;;;;;;;;;;;;;;9.53;24.01;99108.25;5090797;28;19924;-62
2022/03/24 12:44:50;;;;;;;;;;;;;;;9.55;24.18;99104.31;5084988;28;20320;-65
2022/03/24 12:47:30;;;;;;;;;;;;;;;9.57;24.00;99108.56;5072316;28;20456;-65
2022/03/24 12:49:58;;;;;;;;;;;;;;;9.57;23.91;99100.63;5079119;28;19932;-62
2022/03/24 12:52:47;;;;;;;;;;;;;;;9.55;23.52;99106.94;5089118;28;19924;-66
2022/03/24 12:55:22;;;;;;;;;;;;;;;9.57;23.34;99101.44;5088365;28;19924;-64
2022/03/24 12:57:55;;;;;;;;;;;;;;;9.55;22.98;99099.00;5085847;28;19936;-62
2022/03/24 13:00:21;;;;;;;;;;;;;;;9.56;23.28;99099.84;5062369;28;19924;-63